sensor_id;sensor_type;location;lat;lon;timestamp;P1;durP1;ratioP1;P2;durP2;ratioP2
52918;SDS011;38793;52.690;6.812;2023-12-07T00:00:18;13.87;;;11.87;;
52918;SDS011;38793;52.690;6.812;2023-12-07T00:02:44;16.13;;;10.23;;
52918;SDS011;38793;52.690;6.812;2023-12-07T00:05:09;13.83;;;10.87;;
52918;SDS011;38793;52.690;6.812;2023-12-07T00:07:35;14.47;;;11.03;;
52918;SDS011;38793;52.690;6.812;2023-12-07T00:10:00;14.83;;;11.13;;
52918;SDS011;38793;52.690;6.812;2023-12-07T00:12:26;15.23;;;11.40;;
52918;SDS011;38793;52.690;6.812;2023-12-07T00:14:52;18.10;;;11.17;;
52918;SDS011;38793;52.690;6.812;2023-12-07T00:17:17;13.97;;;10.80;;
52918;SDS011;38793;52.690;6.812;2023-12-07T00:19:44;18.42;;;12.68;;
52918;SDS011;38793;52.690;6.812;2023-12-07T00:22:09;16.50;;;10.27;;
52918;SDS011;38793;52.690;6.812;2023-12-07T00:24:35;14.80;;;11.20;;
52918;SDS011;38793;52.690;6.812;2023-12-07T00:27:00;16.20;;;11.23;;
52918;SDS011;38793;52.690;6.812;2023-12-07T00:29:26;14.67;;;11.83;;
52918;SDS011;38793;52.690;6.812;2023-12-07T00:31:52;14.10;;;11.27;;
52918;SDS011;38793;52.690;6.812;2023-12-07T00:34:17;14.37;;;11.57;;
52918;SDS011;38793;52.690;6.812;2023-12-07T00:36:43;14.48;;;9.90;;
52918;SDS011;38793;52.690;6.812;2023-12-07T00:39:09;14.53;;;11.10;;
52918;SDS011;38793;52.690;6.812;2023-12-07T00:41:35;13.30;;;10.98;;
52918;SDS011;38793;52.690;6.812;2023-12-07T00:44:00;14.97;;;10.33;;
52918;SDS011;38793;52.690;6.812;2023-12-07T00:46:26;12.23;;;10.33;;
52918;SDS011;38793;52.690;6.812;2023-12-07T00:48:52;13.73;;;11.20;;
52918;SDS011;38793;52.690;6.812;2023-12-07T00:51:17;18.80;;;11.13;;
52918;SDS011;38793;52.690;6.812;2023-12-07T00:53:43;12.97;;;11.23;;
52918;SDS011;38793;52.690;6.812;2023-12-07T00:56:09;14.57;;;10.67;;
52918;SDS011;38793;52.690;6.812;2023-12-07T00:58:34;15.00;;;10.70;;
52918;SDS011;38793;52.690;6.812;2023-12-07T01:01:01;12.35;;;10.27;;
52918;SDS011;38793;52.690;6.812;2023-12-07T01:03:28;12.73;;;11.10;;
52918;SDS011;38793;52.690;6.812;2023-12-07T01:08:20;13.20;;;10.55;;
52918;SDS011;38793;52.690;6.812;2023-12-07T01:10:46;14.40;;;10.57;;
52918;SDS011;38793;52.690;6.812;2023-12-07T01:13:11;15.33;;;11.47;;
52918;SDS011;38793;52.690;6.812;2023-12-07T01:15:37;15.50;;;11.33;;
52918;SDS011;38793;52.690;6.812;2023-12-07T01:18:02;17.33;;;12.83;;
52918;SDS011;38793;52.690;6.812;2023-12-07T01:20:28;15.87;;;12.17;;
52918;SDS011;38793;52.690;6.812;2023-12-07T01:22:54;17.07;;;13.10;;
52918;SDS011;38793;52.690;6.812;2023-12-07T01:25:19;17.80;;;12.90;;
52918;SDS011;38793;52.690;6.812;2023-12-07T01:27:46;21.38;;;14.82;;
52918;SDS011;38793;52.690;6.812;2023-12-07T01:30:13;19.85;;;13.18;;
52918;SDS011;38793;52.690;6.812;2023-12-07T01:32:39;20.13;;;13.73;;
52918;SDS011;38793;52.690;6.812;2023-12-07T01:35:05;18.90;;;13.77;;
52918;SDS011;38793;52.690;6.812;2023-12-07T01:37:31;20.23;;;13.65;;
52918;SDS011;38793;52.690;6.812;2023-12-07T01:39:56;18.57;;;14.10;;
52918;SDS011;38793;52.690;6.812;2023-12-07T01:42:22;20.20;;;14.00;;
52918;SDS011;38793;52.690;6.812;2023-12-07T01:44:48;22.07;;;14.87;;
52918;SDS011;38793;52.690;6.812;2023-12-07T01:47:13;23.57;;;14.60;;
52918;SDS011;38793;52.690;6.812;2023-12-07T01:49:40;18.40;;;14.07;;
52918;SDS011;38793;52.690;6.812;2023-12-07T01:52:06;22.48;;;14.52;;
52918;SDS011;38793;52.690;6.812;2023-12-07T01:54:33;22.85;;;14.02;;
52918;SDS011;38793;52.690;6.812;2023-12-07T01:56:59;20.70;;;15.68;;
52918;SDS011;38793;52.690;6.812;2023-12-07T01:59:25;18.10;;;14.23;;
52918;SDS011;38793;52.690;6.812;2023-12-07T02:01:51;22.37;;;15.47;;
52918;SDS011;38793;52.690;6.812;2023-12-07T02:04:16;24.48;;;15.00;;
52918;SDS011;38793;52.690;6.812;2023-12-07T02:06:42;21.73;;;15.02;;
52918;SDS011;38793;52.690;6.812;2023-12-07T02:09:08;26.90;;;15.95;;
52918;SDS011;38793;52.690;6.812;2023-12-07T02:11:34;22.85;;;16.83;;
52918;SDS011;38793;52.690;6.812;2023-12-07T02:14:00;26.17;;;17.38;;
52918;SDS011;38793;52.690;6.812;2023-12-07T02:24:34;21.38;;;15.00;;
52918;SDS011;38793;52.690;6.812;2023-12-07T02:27:03;27.45;;;16.25;;
52918;SDS011;38793;52.690;6.812;2023-12-07T02:29:28;23.17;;;16.77;;
52918;SDS011;38793;52.690;6.812;2023-12-07T02:31:54;22.23;;;15.30;;
52918;SDS011;38793;52.690;6.812;2023-12-07T02:34:20;22.03;;;15.40;;
52918;SDS011;38793;52.690;6.812;2023-12-07T02:36:46;21.13;;;15.63;;
52918;SDS011;38793;52.690;6.812;2023-12-07T02:39:13;21.65;;;16.05;;
52918;SDS011;38793;52.690;6.812;2023-12-07T02:41:40;21.48;;;16.05;;
52918;SDS011;38793;52.690;6.812;2023-12-07T02:44:08;22.45;;;15.88;;
52918;SDS011;38793;52.690;6.812;2023-12-07T02:46:34;24.35;;;17.40;;
52918;SDS011;38793;52.690;6.812;2023-12-07T02:48:59;24.70;;;15.50;;
52918;SDS011;38793;52.690;6.812;2023-12-07T02:51:25;23.57;;;16.10;;
52918;SDS011;38793;52.690;6.812;2023-12-07T02:53:50;25.10;;;16.53;;
52918;SDS011;38793;52.690;6.812;2023-12-07T02:56:16;22.20;;;15.30;;
52918;SDS011;38793;52.690;6.812;2023-12-07T02:58:41;25.40;;;16.67;;
52918;SDS011;38793;52.690;6.812;2023-12-07T03:01:07;20.17;;;15.97;;
52918;SDS011;38793;52.690;6.812;2023-12-07T03:03:33;20.10;;;14.80;;
52918;SDS011;38793;52.690;6.812;2023-12-07T03:05:58;24.13;;;16.33;;
52918;SDS011;38793;52.690;6.812;2023-12-07T03:08:24;22.37;;;16.70;;
52918;SDS011;38793;52.690;6.812;2023-12-07T03:10:49;25.30;;;16.10;;
52918;SDS011;38793;52.690;6.812;2023-12-07T03:13:15;24.83;;;16.23;;
52918;SDS011;38793;52.690;6.812;2023-12-07T03:15:41;24.43;;;16.80;;
52918;SDS011;38793;52.690;6.812;2023-12-07T03:18:06;20.90;;;14.80;;
52918;SDS011;38793;52.690;6.812;2023-12-07T03:20:32;22.63;;;16.43;;
52918;SDS011;38793;52.690;6.812;2023-12-07T03:22:59;27.52;;;18.65;;
52918;SDS011;38793;52.690;6.812;2023-12-07T03:25:24;27.77;;;19.50;;
52918;SDS011;38793;52.690;6.812;2023-12-07T03:27:50;29.67;;;19.20;;
52918;SDS011;38793;52.690;6.812;2023-12-07T03:30:15;24.57;;;16.30;;
52918;SDS011;38793;52.690;6.812;2023-12-07T03:32:41;28.80;;;18.17;;
52918;SDS011;38793;52.690;6.812;2023-12-07T03:35:07;25.80;;;18.33;;
52918;SDS011;38793;52.690;6.812;2023-12-07T03:37:32;25.47;;;16.67;;
52918;SDS011;38793;52.690;6.812;2023-12-07T03:39:58;26.27;;;17.53;;
52918;SDS011;38793;52.690;6.812;2023-12-07T03:42:23;24.83;;;18.63;;
52918;SDS011;38793;52.690;6.812;2023-12-07T03:44:49;26.80;;;18.97;;
52918;SDS011;38793;52.690;6.812;2023-12-07T03:47:15;27.63;;;17.13;;
52918;SDS011;38793;52.690;6.812;2023-12-07T03:49:40;23.60;;;16.10;;
52918;SDS011;38793;52.690;6.812;2023-12-07T03:52:07;25.23;;;17.05;;
52918;SDS011;38793;52.690;6.812;2023-12-07T03:54:32;22.37;;;16.87;;
52918;SDS011;38793;52.690;6.812;2023-12-07T03:56:58;21.30;;;15.17;;
52918;SDS011;38793;52.690;6.812;2023-12-07T03:59:24;24.07;;;16.27;;
52918;SDS011;38793;52.690;6.812;2023-12-07T04:01:49;23.43;;;15.73;;
52918;SDS011;38793;52.690;6.812;2023-12-07T04:04:15;25.00;;;17.27;;
52918;SDS011;38793;52.690;6.812;2023-12-07T04:06:40;21.47;;;14.77;;
52918;SDS011;38793;52.690;6.812;2023-12-07T04:09:06;23.27;;;17.07;;
52918;SDS011;38793;52.690;6.812;2023-12-07T04:11:32;25.85;;;17.73;;
52918;SDS011;38793;52.690;6.812;2023-12-07T04:13:58;25.00;;;15.57;;
52918;SDS011;38793;52.690;6.812;2023-12-07T04:16:24;23.38;;;17.40;;
52918;SDS011;38793;52.690;6.812;2023-12-07T04:18:51;27.60;;;17.63;;
52918;SDS011;38793;52.690;6.812;2023-12-07T04:21:16;24.23;;;17.50;;
52918;SDS011;38793;52.690;6.812;2023-12-07T04:23:42;24.47;;;16.90;;
52918;SDS011;38793;52.690;6.812;2023-12-07T04:26:07;26.43;;;17.03;;
52918;SDS011;38793;52.690;6.812;2023-12-07T04:28:33;22.07;;;14.77;;
52918;SDS011;38793;52.690;6.812;2023-12-07T04:30:59;20.37;;;14.70;;
52918;SDS011;38793;52.690;6.812;2023-12-07T04:33:24;21.37;;;14.40;;
52918;SDS011;38793;52.690;6.812;2023-12-07T04:35:50;25.03;;;16.10;;
52918;SDS011;38793;52.690;6.812;2023-12-07T04:38:15;20.27;;;15.83;;
52918;SDS011;38793;52.690;6.812;2023-12-07T04:40:41;19.57;;;13.57;;
52918;SDS011;38793;52.690;6.812;2023-12-07T04:43:07;24.30;;;15.07;;
52918;SDS011;38793;52.690;6.812;2023-12-07T04:45:32;21.47;;;14.37;;
52918;SDS011;38793;52.690;6.812;2023-12-07T04:47:58;21.63;;;15.53;;
52918;SDS011;38793;52.690;6.812;2023-12-07T04:50:25;23.55;;;15.00;;
52918;SDS011;38793;52.690;6.812;2023-12-07T04:52:51;25.53;;;16.00;;
52918;SDS011;38793;52.690;6.812;2023-12-07T04:55:16;20.23;;;14.53;;
52918;SDS011;38793;52.690;6.812;2023-12-07T04:57:42;21.40;;;15.10;;
52918;SDS011;38793;52.690;6.812;2023-12-07T05:00:08;22.00;;;15.70;;
52918;SDS011;38793;52.690;6.812;2023-12-07T05:02:38;26.27;;;17.75;;
52918;SDS011;38793;52.690;6.812;2023-12-07T05:05:04;26.37;;;18.27;;
52918;SDS011;38793;52.690;6.812;2023-12-07T05:07:30;25.50;;;17.92;;
52918;SDS011;38793;52.690;6.812;2023-12-07T05:09:55;26.23;;;17.10;;
52918;SDS011;38793;52.690;6.812;2023-12-07T05:12:21;26.83;;;17.43;;
52918;SDS011;38793;52.690;6.812;2023-12-07T05:14:47;27.37;;;16.20;;
52918;SDS011;38793;52.690;6.812;2023-12-07T05:17:12;27.63;;;17.97;;
52918;SDS011;38793;52.690;6.812;2023-12-07T05:19:38;27.10;;;17.17;;
52918;SDS011;38793;52.690;6.812;2023-12-07T05:22:04;27.30;;;18.80;;
52918;SDS011;38793;52.690;6.812;2023-12-07T05:24:29;27.13;;;18.87;;
52918;SDS011;38793;52.690;6.812;2023-12-07T05:26:57;30.90;;;19.50;;
52918;SDS011;38793;52.690;6.812;2023-12-07T05:29:23;33.22;;;20.65;;
52918;SDS011;38793;52.690;6.812;2023-12-07T05:31:49;30.27;;;19.60;;
52918;SDS011;38793;52.690;6.812;2023-12-07T05:34:17;26.92;;;18.23;;
52918;SDS011;38793;52.690;6.812;2023-12-07T05:36:43;29.27;;;18.70;;
52918;SDS011;38793;52.690;6.812;2023-12-07T05:39:09;27.00;;;18.52;;
52918;SDS011;38793;52.690;6.812;2023-12-07T05:41:36;30.33;;;20.45;;
52918;SDS011;38793;52.690;6.812;2023-12-07T05:44:02;28.17;;;18.92;;
52918;SDS011;38793;52.690;6.812;2023-12-07T05:46:29;28.90;;;18.40;;
52918;SDS011;38793;52.690;6.812;2023-12-07T05:48:54;30.73;;;19.33;;
52918;SDS011;38793;52.690;6.812;2023-12-07T05:51:20;32.43;;;20.87;;
52918;SDS011;38793;52.690;6.812;2023-12-07T05:53:46;31.03;;;20.00;;
52918;SDS011;38793;52.690;6.812;2023-12-07T05:56:11;30.27;;;21.03;;
52918;SDS011;38793;52.690;6.812;2023-12-07T05:58:37;34.45;;;22.70;;
52918;SDS011;38793;52.690;6.812;2023-12-07T06:01:03;31.63;;;20.40;;
52918;SDS011;38793;52.690;6.812;2023-12-07T06:03:29;37.10;;;22.25;;
52918;SDS011;38793;52.690;6.812;2023-12-07T06:05:54;31.13;;;19.45;;
52918;SDS011;38793;52.690;6.812;2023-12-07T06:08:21;32.33;;;20.40;;
52918;SDS011;38793;52.690;6.812;2023-12-07T06:10:47;30.80;;;20.63;;
52918;SDS011;38793;52.690;6.812;2023-12-07T06:13:13;32.83;;;21.42;;
52918;SDS011;38793;52.690;6.812;2023-12-07T06:15:38;44.13;;;23.98;;
52918;SDS011;38793;52.690;6.812;2023-12-07T06:18:04;33.92;;;22.50;;
52918;SDS011;38793;52.690;6.812;2023-12-07T06:20:30;31.88;;;22.10;;
52918;SDS011;38793;52.690;6.812;2023-12-07T06:22:57;34.28;;;22.45;;
52918;SDS011;38793;52.690;6.812;2023-12-07T06:25:23;33.97;;;22.50;;
52918;SDS011;38793;52.690;6.812;2023-12-07T06:27:49;37.95;;;23.15;;
52918;SDS011;38793;52.690;6.812;2023-12-07T06:30:15;34.25;;;23.23;;
52918;SDS011;38793;52.690;6.812;2023-12-07T06:32:41;39.15;;;24.67;;
52918;SDS011;38793;52.690;6.812;2023-12-07T06:35:07;36.45;;;23.00;;
52918;SDS011;38793;52.690;6.812;2023-12-07T06:37:33;34.53;;;23.15;;
52918;SDS011;38793;52.690;6.812;2023-12-07T06:39:59;36.83;;;22.52;;
52918;SDS011;38793;52.690;6.812;2023-12-07T06:42:25;37.47;;;24.52;;
52918;SDS011;38793;52.690;6.812;2023-12-07T06:44:51;36.72;;;22.98;;
52918;SDS011;38793;52.690;6.812;2023-12-07T06:47:17;36.53;;;23.67;;
52918;SDS011;38793;52.690;6.812;2023-12-07T06:49:43;35.90;;;24.52;;
52918;SDS011;38793;52.690;6.812;2023-12-07T06:52:09;39.78;;;23.77;;
52918;SDS011;38793;52.690;6.812;2023-12-07T06:54:36;37.83;;;24.02;;
52918;SDS011;38793;52.690;6.812;2023-12-07T06:57:02;39.15;;;24.50;;
52918;SDS011;38793;52.690;6.812;2023-12-07T06:59:27;37.80;;;23.67;;
52918;SDS011;38793;52.690;6.812;2023-12-07T07:01:53;38.97;;;25.00;;
52918;SDS011;38793;52.690;6.812;2023-12-07T07:04:19;37.25;;;23.83;;
52918;SDS011;38793;52.690;6.812;2023-12-07T07:06:44;37.20;;;25.37;;
52918;SDS011;38793;52.690;6.812;2023-12-07T07:09:10;35.43;;;24.30;;
52918;SDS011;38793;52.690;6.812;2023-12-07T07:11:37;42.35;;;26.98;;
52918;SDS011;38793;52.690;6.812;2023-12-07T07:14:03;45.85;;;26.35;;
52918;SDS011;38793;52.690;6.812;2023-12-07T07:16:29;38.17;;;26.30;;
52918;SDS011;38793;52.690;6.812;2023-12-07T07:18:55;38.47;;;26.25;;
52918;SDS011;38793;52.690;6.812;2023-12-07T07:21:21;43.27;;;27.30;;
52918;SDS011;38793;52.690;6.812;2023-12-07T07:23:46;39.30;;;27.10;;
52918;SDS011;38793;52.690;6.812;2023-12-07T07:26:12;41.27;;;26.27;;
52918;SDS011;38793;52.690;6.812;2023-12-07T07:28:42;39.35;;;24.98;;
52918;SDS011;38793;52.690;6.812;2023-12-07T07:31:08;41.47;;;24.98;;
52918;SDS011;38793;52.690;6.812;2023-12-07T07:33:34;37.37;;;27.13;;
52918;SDS011;38793;52.690;6.812;2023-12-07T07:35:59;44.13;;;27.57;;
52918;SDS011;38793;52.690;6.812;2023-12-07T07:38:25;40.30;;;26.33;;
52918;SDS011;38793;52.690;6.812;2023-12-07T07:40:51;40.07;;;25.37;;
52918;SDS011;38793;52.690;6.812;2023-12-07T07:43:16;42.90;;;29.13;;
52918;SDS011;38793;52.690;6.812;2023-12-07T07:45:42;44.45;;;28.98;;
52918;SDS011;38793;52.690;6.812;2023-12-07T07:48:08;46.47;;;30.00;;
52918;SDS011;38793;52.690;6.812;2023-12-07T07:50:34;41.53;;;28.02;;
52918;SDS011;38793;52.690;6.812;2023-12-07T07:53:01;50.00;;;29.15;;
52918;SDS011;38793;52.690;6.812;2023-12-07T07:55:27;52.50;;;29.58;;
52918;SDS011;38793;52.690;6.812;2023-12-07T07:57:53;51.07;;;30.73;;
52918;SDS011;38793;52.690;6.812;2023-12-07T08:00:19;44.08;;;29.05;;
52918;SDS011;38793;52.690;6.812;2023-12-07T08:02:45;47.38;;;30.15;;
52918;SDS011;38793;52.690;6.812;2023-12-07T08:05:12;48.05;;;31.00;;
52918;SDS011;38793;52.690;6.812;2023-12-07T08:07:38;46.72;;;29.35;;
52918;SDS011;38793;52.690;6.812;2023-12-07T08:10:05;43.22;;;28.90;;
52918;SDS011;38793;52.690;6.812;2023-12-07T08:12:32;42.55;;;27.45;;
52918;SDS011;38793;52.690;6.812;2023-12-07T08:14:58;38.50;;;25.75;;
52918;SDS011;38793;52.690;6.812;2023-12-07T08:17:23;37.27;;;26.30;;
52918;SDS011;38793;52.690;6.812;2023-12-07T08:19:51;39.80;;;26.40;;
52918;SDS011;38793;52.690;6.812;2023-12-07T08:22:17;37.78;;;25.67;;
52918;SDS011;38793;52.690;6.812;2023-12-07T08:24:42;42.33;;;27.27;;
52918;SDS011;38793;52.690;6.812;2023-12-07T08:27:08;36.28;;;24.38;;
52918;SDS011;38793;52.690;6.812;2023-12-07T08:29:34;37.40;;;24.63;;
52918;SDS011;38793;52.690;6.812;2023-12-07T08:32:01;42.42;;;25.35;;
52918;SDS011;38793;52.690;6.812;2023-12-07T08:34:27;165.60;;;34.63;;
52918;SDS011;38793;52.690;6.812;2023-12-07T08:36:53;134.60;;;29.00;;
52918;SDS011;38793;52.690;6.812;2023-12-07T08:39:19;329.60;;;39.90;;
52918;SDS011;38793;52.690;6.812;2023-12-07T08:41:44;260.87;;;35.97;;
52918;SDS011;38793;52.690;6.812;2023-12-07T08:44:10;262.57;;;35.77;;
52918;SDS011;38793;52.690;6.812;2023-12-07T08:46:36;250.90;;;37.75;;
52918;SDS011;38793;52.690;6.812;2023-12-07T08:49:02;214.80;;;36.00;;
52918;SDS011;38793;52.690;6.812;2023-12-07T08:51:28;219.30;;;37.30;;
52918;SDS011;38793;52.690;6.812;2023-12-07T08:53:54;136.18;;;27.15;;
52918;SDS011;38793;52.690;6.812;2023-12-07T08:56:19;224.13;;;38.35;;
52918;SDS011;38793;52.690;6.812;2023-12-07T08:58:45;217.75;;;32.92;;
52918;SDS011;38793;52.690;6.812;2023-12-07T09:01:11;210.30;;;36.60;;
52918;SDS011;38793;52.690;6.812;2023-12-07T09:03:36;225.25;;;30.63;;
52918;SDS011;38793;52.690;6.812;2023-12-07T09:06:02;290.73;;;34.97;;
52918;SDS011;38793;52.690;6.812;2023-12-07T09:08:28;205.68;;;33.75;;
52918;SDS011;38793;52.690;6.812;2023-12-07T09:10:54;251.37;;;38.03;;
52918;SDS011;38793;52.690;6.812;2023-12-07T09:13:19;257.35;;;39.10;;
52918;SDS011;38793;52.690;6.812;2023-12-07T09:15:45;193.73;;;30.57;;
52918;SDS011;38793;52.690;6.812;2023-12-07T09:18:11;174.67;;;32.87;;
52918;SDS011;38793;52.690;6.812;2023-12-07T09:20:37;185.10;;;38.73;;
52918;SDS011;38793;52.690;6.812;2023-12-07T09:23:10;201.68;;;38.40;;
52918;SDS011;38793;52.690;6.812;2023-12-07T09:25:42;215.98;;;44.03;;
52918;SDS011;38793;52.690;6.812;2023-12-07T09:28:08;207.25;;;40.00;;
52918;SDS011;38793;52.690;6.812;2023-12-07T09:30:33;187.63;;;40.03;;
52918;SDS011;38793;52.690;6.812;2023-12-07T09:33:00;126.93;;;33.47;;
52918;SDS011;38793;52.690;6.812;2023-12-07T09:35:29;154.70;;;37.80;;
52918;SDS011;38793;52.690;6.812;2023-12-07T09:37:54;182.70;;;39.20;;
52918;SDS011;38793;52.690;6.812;2023-12-07T09:40:21;117.17;;;32.97;;
52918;SDS011;38793;52.690;6.812;2023-12-07T09:42:47;165.40;;;43.08;;
52918;SDS011;38793;52.690;6.812;2023-12-07T09:45:15;210.80;;;44.15;;
52918;SDS011;38793;52.690;6.812;2023-12-07T09:47:43;248.55;;;55.45;;
52918;SDS011;38793;52.690;6.812;2023-12-07T09:50:12;210.63;;;52.00;;
52918;SDS011;38793;52.690;6.812;2023-12-07T09:52:42;214.93;;;56.40;;
52918;SDS011;38793;52.690;6.812;2023-12-07T09:55:08;251.40;;;56.27;;
52918;SDS011;38793;52.690;6.812;2023-12-07T10:00:03;296.98;;;60.22;;
52918;SDS011;38793;52.690;6.812;2023-12-07T10:05:08;307.42;;;62.17;;
52918;SDS011;38793;52.690;6.812;2023-12-07T10:07:36;234.05;;;49.33;;
52918;SDS011;38793;52.690;6.812;2023-12-07T10:10:04;275.05;;;60.67;;
52918;SDS011;38793;52.690;6.812;2023-12-07T10:12:30;275.40;;;57.47;;
52918;SDS011;38793;52.690;6.812;2023-12-07T10:14:59;279.33;;;55.88;;
52918;SDS011;38793;52.690;6.812;2023-12-07T10:20:15;334.15;;;65.15;;
52918;SDS011;38793;52.690;6.812;2023-12-07T10:22:49;273.10;;;60.38;;
52918;SDS011;38793;52.690;6.812;2023-12-07T10:25:26;257.08;;;62.15;;
52918;SDS011;38793;52.690;6.812;2023-12-07T10:27:51;299.73;;;64.57;;
52918;SDS011;38793;52.690;6.812;2023-12-07T10:30:17;276.90;;;65.47;;
52918;SDS011;38793;52.690;6.812;2023-12-07T10:32:49;386.60;;;68.78;;
52918;SDS011;38793;52.690;6.812;2023-12-07T10:37:41;292.75;;;65.65;;
52918;SDS011;38793;52.690;6.812;2023-12-07T10:40:07;337.73;;;70.83;;
52918;SDS011;38793;52.690;6.812;2023-12-07T10:42:33;252.43;;;61.97;;
52918;SDS011;38793;52.690;6.812;2023-12-07T10:45:03;329.05;;;73.78;;
52918;SDS011;38793;52.690;6.812;2023-12-07T10:47:31;255.52;;;63.45;;
52918;SDS011;38793;52.690;6.812;2023-12-07T10:50:07;283.88;;;64.97;;
52918;SDS011;38793;52.690;6.812;2023-12-07T10:52:36;289.38;;;69.82;;
52918;SDS011;38793;52.690;6.812;2023-12-07T10:55:06;254.98;;;58.17;;
52918;SDS011;38793;52.690;6.812;2023-12-07T10:57:34;326.30;;;65.05;;
52918;SDS011;38793;52.690;6.812;2023-12-07T11:00:02;294.00;;;60.97;;
52918;SDS011;38793;52.690;6.812;2023-12-07T11:02:29;268.35;;;62.08;;
52918;SDS011;38793;52.690;6.812;2023-12-07T11:04:57;301.80;;;61.78;;
52918;SDS011;38793;52.690;6.812;2023-12-07T11:07:25;294.63;;;59.75;;
52918;SDS011;38793;52.690;6.812;2023-12-07T11:10:00;308.73;;;68.25;;
52918;SDS011;38793;52.690;6.812;2023-12-07T11:13:11;251.27;;;61.67;;
52918;SDS011;38793;52.690;6.812;2023-12-07T11:15:24;278.20;;;63.15;;
52918;SDS011;38793;52.690;6.812;2023-12-07T11:17:51;317.65;;;71.53;;
52918;SDS011;38793;52.690;6.812;2023-12-07T11:21:00;310.92;;;68.93;;
52918;SDS011;38793;52.690;6.812;2023-12-07T11:23:11;165.70;;;53.05;;
52918;SDS011;38793;52.690;6.812;2023-12-07T11:25:41;186.77;;;57.88;;
52918;SDS011;38793;52.690;6.812;2023-12-07T11:28:10;202.95;;;61.08;;
52918;SDS011;38793;52.690;6.812;2023-12-07T11:30:36;185.23;;;54.67;;
52918;SDS011;38793;52.690;6.812;2023-12-07T11:33:05;187.38;;;55.92;;
52918;SDS011;38793;52.690;6.812;2023-12-07T11:35:32;191.15;;;54.28;;
52918;SDS011;38793;52.690;6.812;2023-12-07T11:38:07;195.48;;;58.10;;
52918;SDS011;38793;52.690;6.812;2023-12-07T11:40:35;178.20;;;52.97;;
52918;SDS011;38793;52.690;6.812;2023-12-07T11:43:05;189.75;;;56.22;;
52918;SDS011;38793;52.690;6.812;2023-12-07T11:45:49;251.38;;;66.82;;
52918;SDS011;38793;52.690;6.812;2023-12-07T11:48:15;199.75;;;57.13;;
52918;SDS011;38793;52.690;6.812;2023-12-07T11:50:56;189.25;;;53.33;;
52918;SDS011;38793;52.690;6.812;2023-12-07T11:53:30;238.27;;;60.42;;
52918;SDS011;38793;52.690;6.812;2023-12-07T11:55:57;233.32;;;61.38;;
52918;SDS011;38793;52.690;6.812;2023-12-07T11:58:24;255.43;;;58.55;;
52918;SDS011;38793;52.690;6.812;2023-12-07T12:00:55;269.88;;;62.05;;
52918;SDS011;38793;52.690;6.812;2023-12-07T12:03:21;230.10;;;58.40;;
52918;SDS011;38793;52.690;6.812;2023-12-07T12:05:48;242.43;;;58.33;;
52918;SDS011;38793;52.690;6.812;2023-12-07T12:08:13;236.37;;;56.63;;
52918;SDS011;38793;52.690;6.812;2023-12-07T12:10:40;276.50;;;59.88;;
52918;SDS011;38793;52.690;6.812;2023-12-07T12:13:07;334.58;;;68.63;;
52918;SDS011;38793;52.690;6.812;2023-12-07T12:15:33;268.23;;;66.68;;
52918;SDS011;38793;52.690;6.812;2023-12-07T12:17:59;322.83;;;69.60;;
52918;SDS011;38793;52.690;6.812;2023-12-07T12:20:25;326.80;;;70.47;;
52918;SDS011;38793;52.690;6.812;2023-12-07T12:22:52;272.77;;;63.20;;
52918;SDS011;38793;52.690;6.812;2023-12-07T12:25:21;322.75;;;64.70;;
52918;SDS011;38793;52.690;6.812;2023-12-07T12:27:51;294.80;;;66.78;;
52918;SDS011;38793;52.690;6.812;2023-12-07T12:30:18;270.25;;;65.60;;
52918;SDS011;38793;52.690;6.812;2023-12-07T12:32:45;301.25;;;70.70;;
52918;SDS011;38793;52.690;6.812;2023-12-07T12:37:40;235.57;;;60.58;;
52918;SDS011;38793;52.690;6.812;2023-12-07T12:40:07;241.30;;;61.03;;
52918;SDS011;38793;52.690;6.812;2023-12-07T12:42:34;234.60;;;64.82;;
52918;SDS011;38793;52.690;6.812;2023-12-07T12:45:02;215.38;;;59.30;;
52918;SDS011;38793;52.690;6.812;2023-12-07T12:47:29;209.75;;;59.10;;
52918;SDS011;38793;52.690;6.812;2023-12-07T12:49:54;205.90;;;60.60;;
52918;SDS011;38793;52.690;6.812;2023-12-07T12:52:20;199.97;;;58.33;;
52918;SDS011;38793;52.690;6.812;2023-12-07T12:54:50;192.43;;;57.35;;
52918;SDS011;38793;52.690;6.812;2023-12-07T12:57:16;194.17;;;59.80;;
52918;SDS011;38793;52.690;6.812;2023-12-07T12:59:44;193.10;;;61.22;;
52918;SDS011;38793;52.690;6.812;2023-12-07T13:02:10;187.18;;;62.38;;
52918;SDS011;38793;52.690;6.812;2023-12-07T13:04:35;200.00;;;61.30;;
52918;SDS011;38793;52.690;6.812;2023-12-07T13:07:02;206.93;;;60.33;;
52918;SDS011;38793;52.690;6.812;2023-12-07T13:09:27;209.17;;;62.87;;
52918;SDS011;38793;52.690;6.812;2023-12-07T13:11:54;172.75;;;59.25;;
52918;SDS011;38793;52.690;6.812;2023-12-07T13:14:19;200.20;;;61.33;;
52918;SDS011;38793;52.690;6.812;2023-12-07T13:16:45;172.93;;;55.57;;
52918;SDS011;38793;52.690;6.812;2023-12-07T13:19:11;171.37;;;57.37;;
52918;SDS011;38793;52.690;6.812;2023-12-07T13:21:36;151.33;;;55.63;;
52918;SDS011;38793;52.690;6.812;2023-12-07T13:24:03;152.70;;;56.03;;
52918;SDS011;38793;52.690;6.812;2023-12-07T13:26:30;165.23;;;58.95;;
52918;SDS011;38793;52.690;6.812;2023-12-07T13:28:56;161.20;;;57.10;;
52918;SDS011;38793;52.690;6.812;2023-12-07T13:31:22;166.90;;;57.27;;
52918;SDS011;38793;52.690;6.812;2023-12-07T13:33:48;161.30;;;58.60;;
52918;SDS011;38793;52.690;6.812;2023-12-07T13:36:14;160.77;;;59.65;;
52918;SDS011;38793;52.690;6.812;2023-12-07T13:38:42;135.77;;;52.60;;
52918;SDS011;38793;52.690;6.812;2023-12-07T13:41:08;151.85;;;55.72;;
52918;SDS011;38793;52.690;6.812;2023-12-07T13:43:34;143.40;;;55.30;;
52918;SDS011;38793;52.690;6.812;2023-12-07T13:46:00;161.53;;;56.97;;
52918;SDS011;38793;52.690;6.812;2023-12-07T13:48:26;154.27;;;53.65;;
52918;SDS011;38793;52.690;6.812;2023-12-07T13:50:52;147.90;;;58.03;;
52918;SDS011;38793;52.690;6.812;2023-12-07T13:53:17;141.30;;;53.90;;
52918;SDS011;38793;52.690;6.812;2023-12-07T13:55:44;143.47;;;54.77;;
52918;SDS011;38793;52.690;6.812;2023-12-07T13:58:10;153.60;;;55.28;;
52918;SDS011;38793;52.690;6.812;2023-12-07T14:00:37;173.15;;;60.65;;
52918;SDS011;38793;52.690;6.812;2023-12-07T14:03:03;159.35;;;61.08;;
52918;SDS011;38793;52.690;6.812;2023-12-07T14:05:29;124.35;;;54.47;;
52918;SDS011;38793;52.690;6.812;2023-12-07T14:07:55;107.75;;;48.20;;
52918;SDS011;38793;52.690;6.812;2023-12-07T14:10:21;123.57;;;49.72;;
52918;SDS011;38793;52.690;6.812;2023-12-07T14:12:47;121.15;;;52.53;;
52918;SDS011;38793;52.690;6.812;2023-12-07T14:15:13;139.45;;;54.35;;
52918;SDS011;38793;52.690;6.812;2023-12-07T14:17:39;142.50;;;59.45;;
52918;SDS011;38793;52.690;6.812;2023-12-07T14:20:04;127.07;;;50.63;;
52918;SDS011;38793;52.690;6.812;2023-12-07T14:22:32;115.85;;;50.30;;
52918;SDS011;38793;52.690;6.812;2023-12-07T14:24:58;108.22;;;46.15;;
52918;SDS011;38793;52.690;6.812;2023-12-07T14:27:24;105.57;;;48.58;;
52918;SDS011;38793;52.690;6.812;2023-12-07T14:29:50;99.75;;;45.40;;
52918;SDS011;38793;52.690;6.812;2023-12-07T14:32:15;103.77;;;45.70;;
52918;SDS011;38793;52.690;6.812;2023-12-07T14:34:41;102.87;;;47.93;;